KPIA/PIA METAR and TAF weather

Enter ICAO airport designator
Station Type Date Time Source
KPIA METAR 2022/06/30 12:54 UTC NOAA

KPIA 301254Z 19008KT 10SM CLR 23/16 A3010 RMK AO2 SLP187 T02280161


Station Type Date Time Source
KPIA Decoded METAR 2022/06/30 12:54 UTC NOAA

GREATER PEORIA REGIONAL AIRPORT , IL, United States (KPIA) 40-40N 89-41W 205M
Jun 30, 2022 - 08:54 AM EDT / 2022.06.30 1254 UTC
Wind: from the S (190 degrees) at 9 MPH (8 KT):0
Visibility: 10 mile(s):0
Sky conditions: clear
Temperature: 73.0 F (22.8 C)
Dew Point: 61.0 F (16.1 C)
Relative Humidity: 65%
Pressure (altimeter): 30.1 in. Hg (1019 hPa)
ob: KPIA 301254Z 19008KT 10SM CLR 23/16 A3010 RMK AO2 SLP187 T02280161
cycle: 13

Station Type Date Time Source
KPIA TAF 2022/06/30 12:22 UTC NOAA

TAF KPIA 301120Z 3012/0112 19007KT P6SM SKC
FM301500 20012G20KT P6SM FEW250
FM010100 19007KT P6SM SCT250

Example: see airport list